sensor_id;sensor_type;location;lat;lon;timestamp;pressure;altitude;pressure_sealevel;temperature;humidity
80781;BME280;70171;56.408;10.874;2023-05-23T00:02:14;101623.61;;;24.36;32.83
80781;BME280;70171;56.408;10.874;2023-05-23T00:04:41;101616.47;;;24.35;32.92
80781;BME280;70171;56.408;10.874;2023-05-23T00:07:09;101616.16;;;24.34;32.90
80781;BME280;70171;56.408;10.874;2023-05-23T00:09:36;101610.96;;;24.33;32.80
80781;BME280;70171;56.408;10.874;2023-05-23T00:12:03;101612.36;;;24.32;32.85
80781;BME280;70171;56.408;10.874;2023-05-23T00:14:30;101606.46;;;24.31;32.86
80781;BME280;70171;56.408;10.874;2023-05-23T00:16:59;101605.11;;;24.29;32.92
80781;BME280;70171;56.408;10.874;2023-05-23T00:19:29;101597.23;;;24.28;32.93
80781;BME280;70171;56.408;10.874;2023-05-23T00:21:59;101592.80;;;24.26;33.02
80781;BME280;70171;56.408;10.874;2023-05-23T00:24:26;101591.11;;;24.25;32.93
80781;BME280;70171;56.408;10.874;2023-05-23T00:26:53;101594.02;;;24.23;33.01
80781;BME280;70171;56.408;10.874;2023-05-23T00:29:20;101591.55;;;24.22;32.98
80781;BME280;70171;56.408;10.874;2023-05-23T00:31:47;101589.79;;;24.21;32.91
80781;BME280;70171;56.408;10.874;2023-05-23T00:34:15;101590.23;;;24.20;32.97
80781;BME280;70171;56.408;10.874;2023-05-23T00:36:45;101591.81;;;24.19;33.00
80781;BME280;70171;56.408;10.874;2023-05-23T00:39:13;101597.14;;;24.18;32.84
80781;BME280;70171;56.408;10.874;2023-05-23T00:41:49;101594.31;;;24.17;33.01
80781;BME280;70171;56.408;10.874;2023-05-23T00:44:16;101596.23;;;24.16;32.82
80781;BME280;70171;56.408;10.874;2023-05-23T00:46:46;101590.11;;;24.15;33.01
80781;BME280;70171;56.408;10.874;2023-05-23T00:49:15;101591.69;;;24.14;32.89
80781;BME280;70171;56.408;10.874;2023-05-23T00:51:46;101581.81;;;24.12;32.79
80781;BME280;70171;56.408;10.874;2023-05-23T00:54:19;101579.02;;;24.11;32.85
80781;BME280;70171;56.408;10.874;2023-05-23T00:56:49;101577.48;;;24.10;32.95
80781;BME280;70171;56.408;10.874;2023-05-23T00:59:16;101570.83;;;24.09;32.94
80781;BME280;70171;56.408;10.874;2023-05-23T01:01:43;101568.34;;;24.09;32.85
80781;BME280;70171;56.408;10.874;2023-05-23T01:04:12;101567.69;;;24.07;33.09
80781;BME280;70171;56.408;10.874;2023-05-23T01:06:40;101561.41;;;24.07;32.83
80781;BME280;70171;56.408;10.874;2023-05-23T01:09:07;101560.17;;;24.06;32.85
80781;BME280;70171;56.408;10.874;2023-05-23T01:11:46;101557.04;;;24.05;32.82
80781;BME280;70171;56.408;10.874;2023-05-23T01:14:23;101554.19;;;24.04;32.82
80781;BME280;70171;56.408;10.874;2023-05-23T01:16:57;101549.21;;;24.03;32.90
80781;BME280;70171;56.408;10.874;2023-05-23T01:19:58;101543.82;;;24.02;32.86
80781;BME280;70171;56.408;10.874;2023-05-23T01:22:58;101539.39;;;24.01;32.94
80781;BME280;70171;56.408;10.874;2023-05-23T01:26:12;101529.58;;;23.99;33.03
80781;BME280;70171;56.408;10.874;2023-05-23T01:28:47;101525.90;;;23.97;32.92
80781;BME280;70171;56.408;10.874;2023-05-23T01:31:16;101520.52;;;23.96;32.87
80781;BME280;70171;56.408;10.874;2023-05-23T01:33:45;101511.68;;;23.96;32.75
80781;BME280;70171;56.408;10.874;2023-05-23T01:36:12;101509.42;;;23.95;32.81
80781;BME280;70171;56.408;10.874;2023-05-23T01:38:41;101506.58;;;23.94;32.97
80781;BME280;70171;56.408;10.874;2023-05-23T01:41:08;101499.40;;;23.93;32.89
80781;BME280;70171;56.408;10.874;2023-05-23T01:43:36;101495.09;;;23.92;32.90
80781;BME280;70171;56.408;10.874;2023-05-23T01:46:04;101490.08;;;23.91;32.87
80781;BME280;70171;56.408;10.874;2023-05-23T01:48:33;101482.02;;;23.90;32.72
80781;BME280;70171;56.408;10.874;2023-05-23T01:51:01;101478.45;;;23.90;32.88
80781;BME280;70171;56.408;10.874;2023-05-23T01:53:29;101475.21;;;23.89;32.85
80781;BME280;70171;56.408;10.874;2023-05-23T01:55:57;101467.10;;;23.89;32.82
80781;BME280;70171;56.408;10.874;2023-05-23T01:58:24;101465.34;;;23.88;32.87
80781;BME280;70171;56.408;10.874;2023-05-23T02:00:51;101460.70;;;23.87;32.82
80781;BME280;70171;56.408;10.874;2023-05-23T02:03:19;101458.94;;;23.86;32.89
80781;BME280;70171;56.408;10.874;2023-05-23T02:05:46;101455.89;;;23.86;32.79
80781;BME280;70171;56.408;10.874;2023-05-23T02:08:13;101446.71;;;23.85;32.76
80781;BME280;70171;56.408;10.874;2023-05-23T02:10:40;101442.42;;;23.84;32.91
80781;BME280;70171;56.408;10.874;2023-05-23T02:13:07;101435.78;;;23.83;32.88
80781;BME280;70171;56.408;10.874;2023-05-23T02:15:34;101432.39;;;23.82;32.75
80781;BME280;70171;56.408;10.874;2023-05-23T02:18:01;101428.61;;;23.81;32.82
80781;BME280;70171;56.408;10.874;2023-05-23T02:20:29;101426.83;;;23.81;32.77
80781;BME280;70171;56.408;10.874;2023-05-23T02:22:56;101426.25;;;23.79;32.73
80781;BME280;70171;56.408;10.874;2023-05-23T02:25:23;101430.29;;;23.79;32.71
80781;BME280;70171;56.408;10.874;2023-05-23T02:27:50;101434.16;;;23.78;32.77
80781;BME280;70171;56.408;10.874;2023-05-23T02:30:17;101439.60;;;23.78;32.84
80781;BME280;70171;56.408;10.874;2023-05-23T02:32:44;101434.63;;;23.77;32.70
80781;BME280;70171;56.408;10.874;2023-05-23T02:35:12;101435.60;;;23.76;32.70
80781;BME280;70171;56.408;10.874;2023-05-23T02:37:39;101440.38;;;23.76;32.82
80781;BME280;70171;56.408;10.874;2023-05-23T02:40:07;101438.09;;;23.75;32.71
80781;BME280;70171;56.408;10.874;2023-05-23T02:42:35;101441.20;;;23.75;32.71
80781;BME280;70171;56.408;10.874;2023-05-23T02:45:02;101438.23;;;23.74;32.70
80781;BME280;70171;56.408;10.874;2023-05-23T02:47:29;101441.71;;;23.73;32.62
80781;BME280;70171;56.408;10.874;2023-05-23T02:49:56;101446.33;;;23.72;32.74
80781;BME280;70171;56.408;10.874;2023-05-23T02:52:24;101443.48;;;23.72;32.94
80781;BME280;70171;56.408;10.874;2023-05-23T02:54:51;101437.20;;;23.71;32.84
80781;BME280;70171;56.408;10.874;2023-05-23T02:57:18;101433.75;;;23.71;33.15
80781;BME280;70171;56.408;10.874;2023-05-23T02:59:46;101426.55;;;23.70;33.40
80781;BME280;70171;56.408;10.874;2023-05-23T03:02:13;101422.39;;;23.70;33.42
80781;BME280;70171;56.408;10.874;2023-05-23T03:04:40;101416.78;;;23.69;33.70
80781;BME280;70171;56.408;10.874;2023-05-23T03:07:07;101416.27;;;23.69;33.53
80781;BME280;70171;56.408;10.874;2023-05-23T03:09:37;101417.01;;;23.69;33.52
80781;BME280;70171;56.408;10.874;2023-05-23T03:12:04;101411.09;;;23.68;33.34
80781;BME280;70171;56.408;10.874;2023-05-23T03:14:32;101412.53;;;23.68;33.31
80781;BME280;70171;56.408;10.874;2023-05-23T03:16:59;101411.84;;;23.68;33.18
80781;BME280;70171;56.408;10.874;2023-05-23T03:19:26;101413.84;;;23.68;33.26
80781;BME280;70171;56.408;10.874;2023-05-23T03:21:54;101411.10;;;23.68;33.04
80781;BME280;70171;56.408;10.874;2023-05-23T03:24:21;101402.76;;;23.68;33.11
80781;BME280;70171;56.408;10.874;2023-05-23T03:26:48;101391.38;;;23.67;33.08
80781;BME280;70171;56.408;10.874;2023-05-23T03:29:15;101392.52;;;23.67;33.12
80781;BME280;70171;56.408;10.874;2023-05-23T03:31:42;101387.13;;;23.66;33.03
80781;BME280;70171;56.408;10.874;2023-05-23T03:34:09;101383.00;;;23.66;33.02
80781;BME280;70171;56.408;10.874;2023-05-23T03:36:36;101373.97;;;23.65;32.93
80781;BME280;70171;56.408;10.874;2023-05-23T03:39:05;101373.28;;;23.65;33.04
80781;BME280;70171;56.408;10.874;2023-05-23T03:41:32;101368.92;;;23.65;33.08
80781;BME280;70171;56.408;10.874;2023-05-23T03:43:59;101366.83;;;23.64;32.98
80781;BME280;70171;56.408;10.874;2023-05-23T03:46:26;101363.63;;;23.63;33.01
80781;BME280;70171;56.408;10.874;2023-05-23T03:48:53;101359.52;;;23.62;33.01
80781;BME280;70171;56.408;10.874;2023-05-23T03:51:20;101354.79;;;23.62;32.86
80781;BME280;70171;56.408;10.874;2023-05-23T03:53:48;101354.67;;;23.62;32.93
80781;BME280;70171;56.408;10.874;2023-05-23T03:56:15;101349.38;;;23.62;33.12
80781;BME280;70171;56.408;10.874;2023-05-23T03:58:42;101345.05;;;23.62;32.93
80781;BME280;70171;56.408;10.874;2023-05-23T04:01:09;101342.17;;;23.61;33.09
80781;BME280;70171;56.408;10.874;2023-05-23T04:03:36;101340.17;;;23.61;33.13
80781;BME280;70171;56.408;10.874;2023-05-23T04:06:03;101336.94;;;23.61;32.90
80781;BME280;70171;56.408;10.874;2023-05-23T04:08:31;101335.45;;;23.62;32.93
80781;BME280;70171;56.408;10.874;2023-05-23T04:11:00;101330.38;;;23.61;32.98
80781;BME280;70171;56.408;10.874;2023-05-23T04:13:30;101325.50;;;23.61;33.02
80781;BME280;70171;56.408;10.874;2023-05-23T04:16:00;101321.55;;;23.61;33.09
80781;BME280;70171;56.408;10.874;2023-05-23T04:18:27;101316.45;;;23.61;33.29
80781;BME280;70171;56.408;10.874;2023-05-23T04:20:54;101314.84;;;23.61;33.63
80781;BME280;70171;56.408;10.874;2023-05-23T04:23:22;101316.25;;;23.61;33.72
80781;BME280;70171;56.408;10.874;2023-05-23T04:25:49;101317.64;;;23.62;33.92
80781;BME280;70171;56.408;10.874;2023-05-23T04:28:17;101317.39;;;23.62;34.18
80781;BME280;70171;56.408;10.874;2023-05-23T04:30:44;101316.09;;;23.63;34.16
80781;BME280;70171;56.408;10.874;2023-05-23T04:33:11;101315.61;;;23.64;34.45
80781;BME280;70171;56.408;10.874;2023-05-23T04:35:39;101318.27;;;23.65;34.76
80781;BME280;70171;56.408;10.874;2023-05-23T04:38:06;101316.93;;;23.66;34.82
80781;BME280;70171;56.408;10.874;2023-05-23T04:40:33;101318.45;;;23.67;34.99
80781;BME280;70171;56.408;10.874;2023-05-23T04:43:00;101319.09;;;23.68;35.28
80781;BME280;70171;56.408;10.874;2023-05-23T04:45:27;101319.58;;;23.69;35.46
80781;BME280;70171;56.408;10.874;2023-05-23T04:47:54;101319.36;;;23.69;35.80
80781;BME280;70171;56.408;10.874;2023-05-23T04:50:22;101317.44;;;23.70;35.83
80781;BME280;70171;56.408;10.874;2023-05-23T04:52:49;101322.44;;;23.71;35.93
80781;BME280;70171;56.408;10.874;2023-05-23T04:55:16;101326.54;;;23.72;35.93
80781;BME280;70171;56.408;10.874;2023-05-23T04:57:43;101332.10;;;23.73;36.23
80781;BME280;70171;56.408;10.874;2023-05-23T05:00:11;101346.23;;;23.73;36.24
80781;BME280;70171;56.408;10.874;2023-05-23T05:02:38;101353.20;;;23.74;36.29
80781;BME280;70171;56.408;10.874;2023-05-23T05:05:06;101363.69;;;23.75;36.53
80781;BME280;70171;56.408;10.874;2023-05-23T05:07:33;101372.13;;;23.76;36.47
80781;BME280;70171;56.408;10.874;2023-05-23T05:10:02;101373.23;;;23.76;36.64
80781;BME280;70171;56.408;10.874;2023-05-23T05:12:29;101376.42;;;23.77;36.72
80781;BME280;70171;56.408;10.874;2023-05-23T05:14:56;101380.20;;;23.77;36.85
80781;BME280;70171;56.408;10.874;2023-05-23T05:17:23;101375.98;;;23.77;37.11
80781;BME280;70171;56.408;10.874;2023-05-23T05:19:51;101379.77;;;23.78;37.06
80781;BME280;70171;56.408;10.874;2023-05-23T05:22:18;101373.57;;;23.78;37.15
80781;BME280;70171;56.408;10.874;2023-05-23T05:24:45;101367.58;;;23.78;37.08
80781;BME280;70171;56.408;10.874;2023-05-23T05:27:12;101368.30;;;23.78;37.12
80781;BME280;70171;56.408;10.874;2023-05-23T05:29:39;101373.69;;;23.79;37.38
80781;BME280;70171;56.408;10.874;2023-05-23T05:32:08;101374.05;;;23.79;37.38
80781;BME280;70171;56.408;10.874;2023-05-23T05:34:35;101370.92;;;23.79;37.39
80781;BME280;70171;56.408;10.874;2023-05-23T05:37:03;101363.31;;;23.79;37.47
80781;BME280;70171;56.408;10.874;2023-05-23T05:39:30;101355.52;;;23.79;37.35
80781;BME280;70171;56.408;10.874;2023-05-23T05:41:57;101347.44;;;23.80;37.45
80781;BME280;70171;56.408;10.874;2023-05-23T05:44:27;101341.79;;;23.80;37.65
80781;BME280;70171;56.408;10.874;2023-05-23T05:46:54;101336.49;;;23.80;37.65
80781;BME280;70171;56.408;10.874;2023-05-23T05:49:21;101339.73;;;23.81;37.66
80781;BME280;70171;56.408;10.874;2023-05-23T05:51:48;101341.83;;;23.82;37.76
80781;BME280;70171;56.408;10.874;2023-05-23T05:54:15;101345.82;;;23.82;37.81
80781;BME280;70171;56.408;10.874;2023-05-23T05:56:42;101347.06;;;23.82;37.77
80781;BME280;70171;56.408;10.874;2023-05-23T05:59:09;101344.33;;;23.83;37.87
80781;BME280;70171;56.408;10.874;2023-05-23T06:01:36;101349.00;;;23.83;37.90
80781;BME280;70171;56.408;10.874;2023-05-23T06:04:04;101347.14;;;23.84;38.00
80781;BME280;70171;56.408;10.874;2023-05-23T06:06:31;101348.33;;;23.85;38.25
80781;BME280;70171;56.408;10.874;2023-05-23T06:08:58;101351.02;;;23.85;38.18
80781;BME280;70171;56.408;10.874;2023-05-23T06:11:25;101357.13;;;23.86;38.31
80781;BME280;70171;56.408;10.874;2023-05-23T06:13:53;101370.17;;;23.86;38.34
80781;BME280;70171;56.408;10.874;2023-05-23T06:16:20;101375.82;;;23.86;38.42
80781;BME280;70171;56.408;10.874;2023-05-23T06:18:47;101376.65;;;23.87;38.57
80781;BME280;70171;56.408;10.874;2023-05-23T06:21:14;101371.04;;;23.87;38.59
80781;BME280;70171;56.408;10.874;2023-05-23T06:23:42;101366.23;;;23.88;38.61
80781;BME280;70171;56.408;10.874;2023-05-23T06:26:09;101359.27;;;23.89;38.37
80781;BME280;70171;56.408;10.874;2023-05-23T06:28:37;101363.16;;;23.89;38.66
80781;BME280;70171;56.408;10.874;2023-05-23T06:31:06;101365.61;;;23.91;38.58
80781;BME280;70171;56.408;10.874;2023-05-23T06:33:35;101364.41;;;23.92;38.55
80781;BME280;70171;56.408;10.874;2023-05-23T06:36:03;101361.41;;;23.93;38.71
80781;BME280;70171;56.408;10.874;2023-05-23T06:38:30;101355.21;;;23.93;38.63
80781;BME280;70171;56.408;10.874;2023-05-23T06:40:59;101348.71;;;23.95;38.73
80781;BME280;70171;56.408;10.874;2023-05-23T06:43:27;101345.91;;;23.96;38.59
80781;BME280;70171;56.408;10.874;2023-05-23T06:45:54;101344.80;;;23.96;38.44
80781;BME280;70171;56.408;10.874;2023-05-23T06:48:21;101340.76;;;23.97;38.67
80781;BME280;70171;56.408;10.874;2023-05-23T06:50:49;101338.38;;;23.97;38.53
80781;BME280;70171;56.408;10.874;2023-05-23T06:53:16;101337.04;;;23.98;38.70
80781;BME280;70171;56.408;10.874;2023-05-23T06:55:44;101334.45;;;23.98;38.58
80781;BME280;70171;56.408;10.874;2023-05-23T06:58:11;101326.60;;;23.99;38.88
80781;BME280;70171;56.408;10.874;2023-05-23T07:00:38;101322.42;;;23.99;38.76
80781;BME280;70171;56.408;10.874;2023-05-23T07:03:06;101318.20;;;23.99;38.72
80781;BME280;70171;56.408;10.874;2023-05-23T07:05:33;101318.52;;;24.00;38.80
80781;BME280;70171;56.408;10.874;2023-05-23T07:08:00;101317.55;;;24.00;38.77
80781;BME280;70171;56.408;10.874;2023-05-23T07:10:27;101316.58;;;24.01;38.69
80781;BME280;70171;56.408;10.874;2023-05-23T07:12:54;101313.42;;;24.02;38.78
80781;BME280;70171;56.408;10.874;2023-05-23T07:15:22;101308.81;;;24.03;38.73
80781;BME280;70171;56.408;10.874;2023-05-23T07:17:49;101308.42;;;24.03;38.81
80781;BME280;70171;56.408;10.874;2023-05-23T07:20:16;101308.91;;;24.04;38.78
80781;BME280;70171;56.408;10.874;2023-05-23T07:22:43;101307.42;;;24.04;38.57
80781;BME280;70171;56.408;10.874;2023-05-23T07:25:11;101310.83;;;24.05;38.83
80781;BME280;70171;56.408;10.874;2023-05-23T07:27:38;101316.95;;;24.05;38.76
80781;BME280;70171;56.408;10.874;2023-05-23T07:30:06;101330.15;;;24.05;38.72
80781;BME280;70171;56.408;10.874;2023-05-23T07:32:35;101330.67;;;24.06;38.82
80781;BME280;70171;56.408;10.874;2023-05-23T07:35:03;101330.67;;;24.06;38.72
80781;BME280;70171;56.408;10.874;2023-05-23T07:37:30;101326.52;;;24.06;38.57
80781;BME280;70171;56.408;10.874;2023-05-23T07:39:57;101321.81;;;24.05;38.71
80781;BME280;70171;56.408;10.874;2023-05-23T07:42:24;101322.85;;;24.06;38.79
80781;BME280;70171;56.408;10.874;2023-05-23T07:44:51;101321.02;;;24.06;38.71
80781;BME280;70171;56.408;10.874;2023-05-23T07:47:18;101319.92;;;24.06;38.70
80781;BME280;70171;56.408;10.874;2023-05-23T07:49:45;101326.01;;;24.07;38.83
80781;BME280;70171;56.408;10.874;2023-05-23T07:52:13;101330.02;;;24.07;38.84
80781;BME280;70171;56.408;10.874;2023-05-23T07:54:40;101330.56;;;24.07;38.81
80781;BME280;70171;56.408;10.874;2023-05-23T07:57:08;101335.70;;;24.06;38.85
80781;BME280;70171;56.408;10.874;2023-05-23T07:59:35;101337.47;;;24.07;38.82
80781;BME280;70171;56.408;10.874;2023-05-23T08:02:03;101337.33;;;24.06;38.92
80781;BME280;70171;56.408;10.874;2023-05-23T08:04:30;101340.26;;;24.06;38.84
80781;BME280;70171;56.408;10.874;2023-05-23T08:06:58;101340.05;;;24.07;38.81
80781;BME280;70171;56.408;10.874;2023-05-23T08:09:26;101337.50;;;24.07;38.86
80781;BME280;70171;56.408;10.874;2023-05-23T08:11:53;101336.30;;;24.08;38.96
80781;BME280;70171;56.408;10.874;2023-05-23T08:14:20;101329.55;;;24.08;38.91
80781;BME280;70171;56.408;10.874;2023-05-23T08:16:48;101329.11;;;24.09;38.77
80781;BME280;70171;56.408;10.874;2023-05-23T08:19:15;101328.36;;;24.10;38.74
80781;BME280;70171;56.408;10.874;2023-05-23T08:21:42;101328.42;;;24.09;38.69
80781;BME280;70171;56.408;10.874;2023-05-23T08:24:09;101326.39;;;24.09;38.68
80781;BME280;70171;56.408;10.874;2023-05-23T08:26:38;101326.07;;;24.09;38.57
80781;BME280;70171;56.408;10.874;2023-05-23T08:29:06;101325.30;;;24.09;38.46
80781;BME280;70171;56.408;10.874;2023-05-23T08:31:36;101325.59;;;24.10;38.48
80781;BME280;70171;56.408;10.874;2023-05-23T08:34:03;101328.11;;;24.10;38.65
80781;BME280;70171;56.408;10.874;2023-05-23T08:36:30;101328.14;;;24.10;38.48
80781;BME280;70171;56.408;10.874;2023-05-23T08:39:02;101330.14;;;24.10;38.42
80781;BME280;70171;56.408;10.874;2023-05-23T08:41:29;101329.92;;;24.10;38.55
80781;BME280;70171;56.408;10.874;2023-05-23T08:43:56;101330.67;;;24.10;38.51
80781;BME280;70171;56.408;10.874;2023-05-23T08:46:24;101333.80;;;24.10;38.37
80781;BME280;70171;56.408;10.874;2023-05-23T08:48:54;101331.88;;;24.09;38.59
80781;BME280;70171;56.408;10.874;2023-05-23T08:51:24;101333.61;;;24.07;38.64
80781;BME280;70171;56.408;10.874;2023-05-23T08:53:53;101336.46;;;24.06;38.53
80781;BME280;70171;56.408;10.874;2023-05-23T08:56:23;101339.27;;;24.05;38.54
80781;BME280;70171;56.408;10.874;2023-05-23T08:58:52;101348.08;;;24.04;38.38
80781;BME280;70171;56.408;10.874;2023-05-23T09:01:19;101350.33;;;24.03;38.53
80781;BME280;70171;56.408;10.874;2023-05-23T09:03:47;101350.94;;;24.03;38.47
80781;BME280;70171;56.408;10.874;2023-05-23T09:06:14;101351.16;;;24.02;38.49
80781;BME280;70171;56.408;10.874;2023-05-23T09:08:42;101348.49;;;24.02;38.52
80781;BME280;70171;56.408;10.874;2023-05-23T09:11:12;101348.46;;;24.02;38.40
80781;BME280;70171;56.408;10.874;2023-05-23T09:13:40;101350.77;;;24.03;38.46
80781;BME280;70171;56.408;10.874;2023-05-23T09:16:10;101346.52;;;24.03;38.42
80781;BME280;70171;56.408;10.874;2023-05-23T09:18:41;101351.40;;;24.04;38.35
80781;BME280;70171;56.408;10.874;2023-05-23T09:21:10;101352.11;;;24.04;38.35
80781;BME280;70171;56.408;10.874;2023-05-23T09:23:39;101356.41;;;24.04;38.15
80781;BME280;70171;56.408;10.874;2023-05-23T09:26:10;101357.67;;;24.04;38.19
80781;BME280;70171;56.408;10.874;2023-05-23T09:28:41;101358.27;;;24.04;38.34
80781;BME280;70171;56.408;10.874;2023-05-23T09:31:08;101357.89;;;24.02;38.29
80781;BME280;70171;56.408;10.874;2023-05-23T09:36:11;101362.23;;;24.00;38.26
80781;BME280;70171;56.408;10.874;2023-05-23T09:38:39;101360.48;;;23.99;38.32
80781;BME280;70171;56.408;10.874;2023-05-23T09:41:08;101358.86;;;23.99;38.40
80781;BME280;70171;56.408;10.874;2023-05-23T09:43:39;101355.45;;;23.99;38.23
80781;BME280;70171;56.408;10.874;2023-05-23T09:46:09;101354.02;;;23.99;38.26
80781;BME280;70171;56.408;10.874;2023-05-23T09:48:37;101346.41;;;23.99;38.38
80781;BME280;70171;56.408;10.874;2023-05-23T09:51:07;101348.73;;;23.99;38.37
80781;BME280;70171;56.408;10.874;2023-05-23T09:53:35;101345.59;;;24.00;38.30
80781;BME280;70171;56.408;10.874;2023-05-23T09:56:03;101346.45;;;24.00;38.32
80781;BME280;70171;56.408;10.874;2023-05-23T09:58:31;101343.18;;;24.00;38.37
80781;BME280;70171;56.408;10.874;2023-05-23T10:00:59;101341.14;;;24.00;38.31
80781;BME280;70171;56.408;10.874;2023-05-23T10:03:50;101342.30;;;24.02;38.31
80781;BME280;70171;56.408;10.874;2023-05-23T10:08:59;101341.39;;;24.04;38.17
80781;BME280;70171;56.408;10.874;2023-05-23T10:14:06;101345.16;;;24.06;38.32
80781;BME280;70171;56.408;10.874;2023-05-23T10:17:28;101348.03;;;24.09;38.28
80781;BME280;70171;56.408;10.874;2023-05-23T10:20:10;101341.20;;;24.14;38.36
80781;BME280;70171;56.408;10.874;2023-05-23T10:22:38;101347.32;;;24.17;38.40
80781;BME280;70171;56.408;10.874;2023-05-23T10:25:07;101347.33;;;24.19;38.43
80781;BME280;70171;56.408;10.874;2023-05-23T10:27:37;101350.68;;;24.20;38.58
80781;BME280;70171;56.408;10.874;2023-05-23T10:30:06;101351.77;;;24.20;38.63
80781;BME280;70171;56.408;10.874;2023-05-23T10:32:36;101354.88;;;24.20;38.72
80781;BME280;70171;56.408;10.874;2023-05-23T10:35:36;101350.86;;;24.20;38.66
80781;BME280;70171;56.408;10.874;2023-05-23T10:41:35;101361.51;;;24.23;38.75
80781;BME280;70171;56.408;10.874;2023-05-23T10:44:19;101360.05;;;24.25;38.80
80781;BME280;70171;56.408;10.874;2023-05-23T10:49:21;101363.10;;;24.28;38.73
80781;BME280;70171;56.408;10.874;2023-05-23T10:52:03;101361.59;;;24.30;38.67
80781;BME280;70171;56.408;10.874;2023-05-23T10:54:50;101361.77;;;24.34;38.68
80781;BME280;70171;56.408;10.874;2023-05-23T10:57:21;101361.63;;;24.38;38.60
80781;BME280;70171;56.408;10.874;2023-05-23T10:59:51;101362.71;;;24.40;38.67
80781;BME280;70171;56.408;10.874;2023-05-23T11:02:26;101360.05;;;24.44;38.74
80781;BME280;70171;56.408;10.874;2023-05-23T11:05:18;101360.06;;;24.46;38.57
80781;BME280;70171;56.408;10.874;2023-05-23T11:08:23;101353.47;;;24.46;38.46
80781;BME280;70171;56.408;10.874;2023-05-23T11:13:20;101361.73;;;24.48;38.44
80781;BME280;70171;56.408;10.874;2023-05-23T11:15:48;101360.26;;;24.48;38.55
80781;BME280;70171;56.408;10.874;2023-05-23T11:18:28;101358.17;;;24.49;38.43
80781;BME280;70171;56.408;10.874;2023-05-23T11:20:57;101355.52;;;24.50;38.37
80781;BME280;70171;56.408;10.874;2023-05-23T11:23:39;101356.73;;;24.51;38.31
80781;BME280;70171;56.408;10.874;2023-05-23T11:26:30;101354.52;;;24.51;38.37
80781;BME280;70171;56.408;10.874;2023-05-23T11:28:58;101355.95;;;24.52;38.27
80781;BME280;70171;56.408;10.874;2023-05-23T11:31:25;101357.39;;;24.52;38.16
80781;BME280;70171;56.408;10.874;2023-05-23T11:33:53;101358.02;;;24.53;38.22
80781;BME280;70171;56.408;10.874;2023-05-23T11:36:21;101357.41;;;24.53;38.21
80781;BME280;70171;56.408;10.874;2023-05-23T11:38:51;101355.30;;;24.54;38.13
80781;BME280;70171;56.408;10.874;2023-05-23T11:41:18;101361.24;;;24.57;38.13
80781;BME280;70171;56.408;10.874;2023-05-23T11:43:52;101357.20;;;24.59;38.03
80781;BME280;70171;56.408;10.874;2023-05-23T11:46:19;101356.41;;;24.66;38.01
80781;BME280;70171;56.408;10.874;2023-05-23T11:48:47;101356.52;;;24.73;37.94
80781;BME280;70171;56.408;10.874;2023-05-23T11:51:16;101354.02;;;24.79;37.74
80781;BME280;70171;56.408;10.874;2023-05-23T11:53:43;101353.09;;;24.85;37.76
80781;BME280;70171;56.408;10.874;2023-05-23T11:56:10;101360.70;;;24.93;37.67
80781;BME280;70171;56.408;10.874;2023-05-23T11:58:38;101361.36;;;24.94;37.77
80781;BME280;70171;56.408;10.874;2023-05-23T12:01:08;101363.11;;;24.91;37.68
80781;BME280;70171;56.408;10.874;2023-05-23T12:03:47;101362.64;;;24.86;37.84
80781;BME280;70171;56.408;10.874;2023-05-23T12:06:18;101360.59;;;24.80;37.90
80781;BME280;70171;56.408;10.874;2023-05-23T12:08:46;101364.89;;;24.75;37.80
80781;BME280;70171;56.408;10.874;2023-05-23T12:11:14;101365.06;;;24.71;37.76
80781;BME280;70171;56.408;10.874;2023-05-23T12:13:41;101367.67;;;24.68;37.93
80781;BME280;70171;56.408;10.874;2023-05-23T12:16:08;101368.21;;;24.66;37.86
80781;BME280;70171;56.408;10.874;2023-05-23T12:18:37;101368.27;;;24.66;37.70
80781;BME280;70171;56.408;10.874;2023-05-23T12:21:05;101364.02;;;24.64;37.72
80781;BME280;70171;56.408;10.874;2023-05-23T12:23:34;101366.95;;;24.66;37.76
80781;BME280;70171;56.408;10.874;2023-05-23T12:26:06;101363.45;;;24.69;37.77
80781;BME280;70171;56.408;10.874;2023-05-23T12:28:36;101364.15;;;24.71;37.60
80781;BME280;70171;56.408;10.874;2023-05-23T12:31:16;101365.30;;;24.73;37.62
80781;BME280;70171;56.408;10.874;2023-05-23T12:33:45;101366.70;;;24.75;37.63
80781;BME280;70171;56.408;10.874;2023-05-23T12:36:15;101368.60;;;24.79;37.47
80781;BME280;70171;56.408;10.874;2023-05-23T12:38:46;101366.52;;;24.81;37.49
80781;BME280;70171;56.408;10.874;2023-05-23T12:41:18;101370.75;;;24.87;37.34
80781;BME280;70171;56.408;10.874;2023-05-23T12:43:53;101371.13;;;24.95;37.26
80781;BME280;70171;56.408;10.874;2023-05-23T12:46:25;101371.16;;;25.01;37.06
80781;BME280;70171;56.408;10.874;2023-05-23T12:48:53;101369.81;;;25.08;37.03
80781;BME280;70171;56.408;10.874;2023-05-23T12:51:20;101366.77;;;25.19;36.89
80781;BME280;70171;56.408;10.874;2023-05-23T12:53:48;101366.71;;;25.29;36.70
80781;BME280;70171;56.408;10.874;2023-05-23T12:56:15;101366.73;;;25.35;36.63
80781;BME280;70171;56.408;10.874;2023-05-23T12:58:42;101369.51;;;25.38;36.47
80781;BME280;70171;56.408;10.874;2023-05-23T13:01:09;101373.70;;;25.42;36.46
80781;BME280;70171;56.408;10.874;2023-05-23T13:03:37;101373.91;;;25.46;36.30
80781;BME280;70171;56.408;10.874;2023-05-23T13:06:04;101379.53;;;25.48;36.31
80781;BME280;70171;56.408;10.874;2023-05-23T13:08:32;101380.54;;;25.47;36.37